sensor_id;sensor_type;location;lat;lon;timestamp;pressure;altitude;pressure_sealevel;temperature;humidity
49461;BME280;35355;49.198;-0.368;2023-04-10T00:00:47;101164.53;;;15.03;50.95
49461;BME280;35355;49.198;-0.368;2023-04-10T00:03:17;101167.28;;;14.98;51.21
49461;BME280;35355;49.198;-0.368;2023-04-10T00:05:43;101165.38;;;14.93;51.35
49461;BME280;35355;49.198;-0.368;2023-04-10T00:08:08;101159.63;;;14.89;51.27
49461;BME280;35355;49.198;-0.368;2023-04-10T00:10:34;101169.53;;;14.85;51.58
49461;BME280;35355;49.198;-0.368;2023-04-10T00:12:59;101151.97;;;14.81;51.91
49461;BME280;35355;49.198;-0.368;2023-04-10T00:15:25;101159.13;;;14.77;52.06
49461;BME280;35355;49.198;-0.368;2023-04-10T00:17:50;101155.00;;;14.74;52.14
49461;BME280;35355;49.198;-0.368;2023-04-10T00:20:22;101143.75;;;14.71;52.10
49461;BME280;35355;49.198;-0.368;2023-04-10T00:22:48;101151.19;;;14.70;52.16
49461;BME280;35355;49.198;-0.368;2023-04-10T00:25:13;101152.00;;;14.71;52.04
49461;BME280;35355;49.198;-0.368;2023-04-10T00:27:39;101146.50;;;14.71;51.95
49461;BME280;35355;49.198;-0.368;2023-04-10T00:30:05;101144.84;;;14.70;51.87
49461;BME280;35355;49.198;-0.368;2023-04-10T00:32:31;101144.84;;;14.70;51.85
49461;BME280;35355;49.198;-0.368;2023-04-10T00:34:56;101148.69;;;14.69;51.94
49461;BME280;35355;49.198;-0.368;2023-04-10T00:37:22;101152.00;;;14.71;52.02
49461;BME280;35355;49.198;-0.368;2023-04-10T00:39:47;101150.06;;;14.71;51.85
49461;BME280;35355;49.198;-0.368;2023-04-10T00:42:13;101150.34;;;14.70;52.10
49461;BME280;35355;49.198;-0.368;2023-04-10T00:44:38;101147.06;;;14.68;52.18
49461;BME280;35355;49.198;-0.368;2023-04-10T00:47:06;101149.81;;;14.68;52.20
49461;BME280;35355;49.198;-0.368;2023-04-10T00:49:32;101135.50;;;14.66;52.35
49461;BME280;35355;49.198;-0.368;2023-04-10T00:51:58;101136.06;;;14.63;52.43
49461;BME280;35355;49.198;-0.368;2023-04-10T00:54:23;101142.69;;;14.62;52.54
49461;BME280;35355;49.198;-0.368;2023-04-10T00:56:49;101132.22;;;14.59;52.68
49461;BME280;35355;49.198;-0.368;2023-04-10T00:59:15;101121.78;;;14.55;52.78
49461;BME280;35355;49.198;-0.368;2023-04-10T01:01:41;101113.00;;;14.53;52.89
49461;BME280;35355;49.198;-0.368;2023-04-10T01:04:07;101105.31;;;14.50;52.99
49461;BME280;35355;49.198;-0.368;2023-04-10T01:15:15;101077.03;;;14.45;52.89
49461;BME280;35355;49.198;-0.368;2023-04-10T01:20:20;101080.59;;;14.45;52.99
49461;BME280;35355;49.198;-0.368;2023-04-10T01:26:03;101072.94;;;14.42;53.02
49461;BME280;35355;49.198;-0.368;2023-04-10T01:31:17;101072.38;;;14.45;52.37
49461;BME280;35355;49.198;-0.368;2023-04-10T01:33:59;101069.91;;;14.44;52.60
49461;BME280;35355;49.198;-0.368;2023-04-10T01:36:35;101066.63;;;14.42;53.17
49461;BME280;35355;49.198;-0.368;2023-04-10T01:39:02;101059.22;;;14.37;53.28
49461;BME280;35355;49.198;-0.368;2023-04-10T01:41:30;101057.56;;;14.36;53.50
49461;BME280;35355;49.198;-0.368;2023-04-10T01:43:57;101051.81;;;14.32;53.77
49461;BME280;35355;49.198;-0.368;2023-04-10T01:46:24;101059.50;;;14.30;53.87
49461;BME280;35355;49.198;-0.368;2023-04-10T01:48:52;101055.41;;;14.28;54.01
49461;BME280;35355;49.198;-0.368;2023-04-10T01:51:17;101055.13;;;14.29;54.11
49461;BME280;35355;49.198;-0.368;2023-04-10T01:53:43;101046.06;;;14.29;53.90
49461;BME280;35355;49.198;-0.368;2023-04-10T01:56:12;101047.47;;;14.26;53.96
49461;BME280;35355;49.198;-0.368;2023-04-10T01:58:37;101038.38;;;14.26;53.89
49461;BME280;35355;49.198;-0.368;2023-04-10T02:01:03;101031.78;;;14.27;53.87
49461;BME280;35355;49.198;-0.368;2023-04-10T02:03:28;101035.06;;;14.29;53.91
49461;BME280;35355;49.198;-0.368;2023-04-10T02:06:04;101026.84;;;14.29;53.80
49461;BME280;35355;49.198;-0.368;2023-04-10T02:08:58;101014.75;;;14.30;53.40
49461;BME280;35355;49.198;-0.368;2023-04-10T02:11:39;101008.13;;;14.36;53.61
49461;BME280;35355;49.198;-0.368;2023-04-10T02:14:10;101010.31;;;14.39;53.59
49461;BME280;35355;49.198;-0.368;2023-04-10T02:16:37;101007.00;;;14.42;53.49
49461;BME280;35355;49.198;-0.368;2023-04-10T02:19:04;100997.69;;;14.43;53.41
49461;BME280;35355;49.198;-0.368;2023-04-10T02:21:32;100998.22;;;14.45;53.30
49461;BME280;35355;49.198;-0.368;2023-04-10T02:23:58;100993.28;;;14.47;53.19
49461;BME280;35355;49.198;-0.368;2023-04-10T02:26:23;100987.50;;;14.49;53.18
49461;BME280;35355;49.198;-0.368;2023-04-10T02:28:49;100998.19;;;14.50;53.16
49461;BME280;35355;49.198;-0.368;2023-04-10T02:31:14;100995.97;;;14.52;53.22
49461;BME280;35355;49.198;-0.368;2023-04-10T02:33:40;100994.34;;;14.51;53.24
49461;BME280;35355;49.198;-0.368;2023-04-10T02:36:06;100993.53;;;14.51;53.36
49461;BME280;35355;49.198;-0.368;2023-04-10T02:38:31;100987.50;;;14.49;53.56
49461;BME280;35355;49.198;-0.368;2023-04-10T02:40:57;100993.00;;;14.49;53.33
49461;BME280;35355;49.198;-0.368;2023-04-10T02:43:22;100992.47;;;14.47;53.58
49461;BME280;35355;49.198;-0.368;2023-04-10T02:45:47;100990.81;;;14.46;53.61
49461;BME280;35355;49.198;-0.368;2023-04-10T02:48:13;100991.38;;;14.43;53.67
49461;BME280;35355;49.198;-0.368;2023-04-10T02:50:38;100985.03;;;14.42;53.63
49461;BME280;35355;49.198;-0.368;2023-04-10T02:53:05;100978.44;;;14.43;53.70
49461;BME280;35355;49.198;-0.368;2023-04-10T02:55:30;100977.34;;;14.44;53.89
49461;BME280;35355;49.198;-0.368;2023-04-10T02:57:55;100971.59;;;14.46;53.93
49461;BME280;35355;49.198;-0.368;2023-04-10T03:00:21;100972.41;;;14.46;53.79
49461;BME280;35355;49.198;-0.368;2023-04-10T03:02:47;100957.28;;;14.44;53.58
49461;BME280;35355;49.198;-0.368;2023-04-10T03:05:12;100963.59;;;14.49;54.01
49461;BME280;35355;49.198;-0.368;2023-04-10T03:07:37;100954.53;;;14.49;53.41
49461;BME280;35355;49.198;-0.368;2023-04-10T03:10:03;100958.09;;;14.49;53.65
49461;BME280;35355;49.198;-0.368;2023-04-10T03:12:28;100957.81;;;14.51;53.73
49461;BME280;35355;49.198;-0.368;2023-04-10T03:14:53;100950.41;;;14.51;53.75
49461;BME280;35355;49.198;-0.368;2023-04-10T03:17:19;100955.91;;;14.51;53.82
49461;BME280;35355;49.198;-0.368;2023-04-10T03:19:44;100961.41;;;14.51;53.79
49461;BME280;35355;49.198;-0.368;2023-04-10T03:22:10;100956.19;;;14.50;53.86
49461;BME280;35355;49.198;-0.368;2023-04-10T03:24:35;100959.75;;;14.50;53.62
49461;BME280;35355;49.198;-0.368;2023-04-10T03:27:02;100966.06;;;14.51;53.59
49461;BME280;35355;49.198;-0.368;2023-04-10T03:29:27;100960.28;;;14.52;53.48
49461;BME280;35355;49.198;-0.368;2023-04-10T03:31:53;100957.53;;;14.52;53.40
49461;BME280;35355;49.198;-0.368;2023-04-10T03:34:18;100961.41;;;14.51;53.45
49461;BME280;35355;49.198;-0.368;2023-04-10T03:36:43;100971.81;;;14.54;53.36
49461;BME280;35355;49.198;-0.368;2023-04-10T03:39:09;100966.31;;;14.54;53.53
49461;BME280;35355;49.198;-0.368;2023-04-10T03:41:34;100960.53;;;14.56;53.31
49461;BME280;35355;49.198;-0.368;2023-04-10T03:44:00;100953.66;;;14.59;53.33
49461;BME280;35355;49.198;-0.368;2023-04-10T03:46:27;100950.09;;;14.58;53.13
49461;BME280;35355;49.198;-0.368;2023-04-10T03:48:52;100950.94;;;14.59;53.18
49461;BME280;35355;49.198;-0.368;2023-04-10T03:51:18;100952.03;;;14.57;53.41
49461;BME280;35355;49.198;-0.368;2023-04-10T03:53:44;100953.94;;;14.57;53.22
49461;BME280;35355;49.198;-0.368;2023-04-10T03:56:09;100952.31;;;14.56;53.40
49461;BME280;35355;49.198;-0.368;2023-04-10T03:58:35;100953.41;;;14.55;53.52
49461;BME280;35355;49.198;-0.368;2023-04-10T04:01:00;100954.50;;;14.54;53.69
49461;BME280;35355;49.198;-0.368;2023-04-10T04:03:26;100941.03;;;14.52;53.88
49461;BME280;35355;49.198;-0.368;2023-04-10T04:05:51;100945.44;;;14.53;53.77
49461;BME280;35355;49.198;-0.368;2023-04-10T04:08:16;100945.97;;;14.55;53.91
49461;BME280;35355;49.198;-0.368;2023-04-10T04:10:42;100955.34;;;14.54;53.95
49461;BME280;35355;49.198;-0.368;2023-04-10T04:13:07;100944.34;;;14.54;53.66
49461;BME280;35355;49.198;-0.368;2023-04-10T04:15:32;100943.50;;;14.54;53.67
49461;BME280;35355;49.198;-0.368;2023-04-10T04:17:58;100938.84;;;14.54;53.76
49461;BME280;35355;49.198;-0.368;2023-04-10T04:20:25;100933.34;;;14.54;53.84
49461;BME280;35355;49.198;-0.368;2023-04-10T04:22:50;100933.06;;;14.56;53.95
49461;BME280;35355;49.198;-0.368;2023-04-10T04:25:16;100926.47;;;14.57;54.08
49461;BME280;35355;49.198;-0.368;2023-04-10T04:27:42;100927.88;;;14.54;53.67
49461;BME280;35355;49.198;-0.368;2023-04-10T04:30:08;100935.81;;;14.56;54.16
49461;BME280;35355;49.198;-0.368;2023-04-10T04:32:33;100935.53;;;14.57;54.34
49461;BME280;35355;49.198;-0.368;2023-04-10T04:34:58;100933.88;;;14.56;54.19
49461;BME280;35355;49.198;-0.368;2023-04-10T04:37:24;100939.38;;;14.56;54.45
49461;BME280;35355;49.198;-0.368;2023-04-10T04:39:49;100942.13;;;14.56;54.41
49461;BME280;35355;49.198;-0.368;2023-04-10T04:42:14;100934.97;;;14.55;54.39
49461;BME280;35355;49.198;-0.368;2023-04-10T04:44:40;100943.22;;;14.55;54.48
49461;BME280;35355;49.198;-0.368;2023-04-10T04:47:05;100951.47;;;14.55;54.36
49461;BME280;35355;49.198;-0.368;2023-04-10T04:49:30;100958.09;;;14.54;54.06
49461;BME280;35355;49.198;-0.368;2023-04-10T04:51:56;100959.19;;;14.53;54.31
49461;BME280;35355;49.198;-0.368;2023-04-10T04:54:21;100950.13;;;14.53;54.34
49461;BME280;35355;49.198;-0.368;2023-04-10T04:56:46;100952.03;;;14.52;54.28
49461;BME280;35355;49.198;-0.368;2023-04-10T04:59:12;100947.66;;;14.51;54.21
49461;BME280;35355;49.198;-0.368;2023-04-10T05:01:37;100954.25;;;14.50;54.12
49461;BME280;35355;49.198;-0.368;2023-04-10T05:04:03;100956.47;;;14.48;54.20
49461;BME280;35355;49.198;-0.368;2023-04-10T05:06:28;100947.69;;;14.46;54.07
49461;BME280;35355;49.198;-0.368;2023-04-10T05:08:53;100958.13;;;14.44;54.02
49461;BME280;35355;49.198;-0.368;2023-04-10T05:11:18;100963.06;;;14.42;54.18
49461;BME280;35355;49.198;-0.368;2023-04-10T05:13:44;100966.94;;;14.41;54.12
49461;BME280;35355;49.198;-0.368;2023-04-10T05:16:10;100962.25;;;14.42;53.92
49461;BME280;35355;49.198;-0.368;2023-04-10T05:18:35;100963.63;;;14.39;53.88
49461;BME280;35355;49.198;-0.368;2023-04-10T05:21:00;100957.06;;;14.40;53.89
49461;BME280;35355;49.198;-0.368;2023-04-10T05:23:26;100959.00;;;14.39;53.92
49461;BME280;35355;49.198;-0.368;2023-04-10T05:25:51;100966.94;;;14.41;53.98
49461;BME280;35355;49.198;-0.368;2023-04-10T05:28:17;100977.94;;;14.41;53.80
49461;BME280;35355;49.198;-0.368;2023-04-10T05:30:42;100961.44;;;14.41;53.93
49461;BME280;35355;49.198;-0.368;2023-04-10T05:33:08;100955.97;;;14.41;53.79
49461;BME280;35355;49.198;-0.368;2023-04-10T05:35:33;100955.97;;;14.41;54.05
49461;BME280;35355;49.198;-0.368;2023-04-10T05:37:58;100970.22;;;14.43;53.88
49461;BME280;35355;49.198;-0.368;2023-04-10T05:40:25;100955.97;;;14.41;53.77
49461;BME280;35355;49.198;-0.368;2023-04-10T05:42:50;100959.81;;;14.40;53.72
49461;BME280;35355;49.198;-0.368;2023-04-10T05:45:16;100954.31;;;14.40;53.87
49461;BME280;35355;49.198;-0.368;2023-04-10T05:47:42;100961.44;;;14.41;54.13
49461;BME280;35355;49.198;-0.368;2023-04-10T05:50:08;100955.97;;;14.41;54.09
49461;BME280;35355;49.198;-0.368;2023-04-10T05:52:34;100964.47;;;14.39;54.19
49461;BME280;35355;49.198;-0.368;2023-04-10T05:54:59;100955.97;;;14.41;54.18
49461;BME280;35355;49.198;-0.368;2023-04-10T05:57:25;100954.03;;;14.42;54.23
49461;BME280;35355;49.198;-0.368;2023-04-10T05:59:50;100963.06;;;14.42;54.24
49461;BME280;35355;49.198;-0.368;2023-04-10T06:02:15;100951.03;;;14.38;54.33
49461;BME280;35355;49.198;-0.368;2023-04-10T06:04:41;100963.06;;;14.42;54.37
49461;BME280;35355;49.198;-0.368;2023-04-10T06:07:06;100961.16;;;14.43;53.99
49461;BME280;35355;49.198;-0.368;2023-04-10T06:09:32;100959.22;;;14.43;54.20
49461;BME280;35355;49.198;-0.368;2023-04-10T06:11:57;100959.22;;;14.43;54.35
49461;BME280;35355;49.198;-0.368;2023-04-10T06:14:22;100952.94;;;14.43;54.59
49461;BME280;35355;49.198;-0.368;2023-04-10T06:16:48;100948.25;;;14.43;54.56
49461;BME280;35355;49.198;-0.368;2023-04-10T06:19:13;100960.88;;;14.44;54.51
49461;BME280;35355;49.198;-0.368;2023-04-10T06:21:38;100958.13;;;14.44;54.40
49461;BME280;35355;49.198;-0.368;2023-04-10T06:24:04;100964.44;;;14.45;54.53
49461;BME280;35355;49.198;-0.368;2023-04-10T06:26:29;100968.00;;;14.45;54.57
49461;BME280;35355;49.198;-0.368;2023-04-10T06:28:55;100956.19;;;14.45;54.46
49461;BME280;35355;49.198;-0.368;2023-04-10T06:31:20;100951.53;;;14.45;54.49
49461;BME280;35355;49.198;-0.368;2023-04-10T06:33:47;100959.75;;;14.45;54.73
49461;BME280;35355;49.198;-0.368;2023-04-10T06:36:12;100943.56;;;14.44;54.35
49461;BME280;35355;49.198;-0.368;2023-04-10T06:38:38;100946.59;;;14.42;54.50
49461;BME280;35355;49.198;-0.368;2023-04-10T06:41:04;100955.97;;;14.41;54.72
49461;BME280;35355;49.198;-0.368;2023-04-10T06:43:32;100948.81;;;14.40;54.72
49461;BME280;35355;49.198;-0.368;2023-04-10T06:45:58;100950.47;;;14.41;54.91
49461;BME280;35355;49.198;-0.368;2023-04-10T06:48:23;100947.44;;;14.43;54.74
49461;BME280;35355;49.198;-0.368;2023-04-10T06:50:48;100943.03;;;14.42;54.90
49461;BME280;35355;49.198;-0.368;2023-04-10T06:53:14;100946.59;;;14.42;54.79
49461;BME280;35355;49.198;-0.368;2023-04-10T06:55:39;100944.41;;;14.44;54.66
49461;BME280;35355;49.198;-0.368;2023-04-10T06:58:05;100943.28;;;14.45;54.82
49461;BME280;35355;49.198;-0.368;2023-04-10T07:00:30;100942.19;;;14.46;54.82
49461;BME280;35355;49.198;-0.368;2023-04-10T07:02:55;100940.53;;;14.45;55.10
49461;BME280;35355;49.198;-0.368;2023-04-10T07:05:21;100944.94;;;14.46;55.22
49461;BME280;35355;49.198;-0.368;2023-04-10T07:07:46;100950.13;;;14.48;55.42
49461;BME280;35355;49.198;-0.368;2023-04-10T07:10:14;100943.25;;;14.50;54.70
49461;BME280;35355;49.198;-0.368;2023-04-10T07:12:40;100935.56;;;14.52;55.23
49461;BME280;35355;49.198;-0.368;2023-04-10T07:15:06;100937.19;;;14.53;55.21
49461;BME280;35355;49.198;-0.368;2023-04-10T07:17:32;100936.91;;;14.55;55.38
49461;BME280;35355;49.198;-0.368;2023-04-10T07:19:57;100932.22;;;14.55;55.38
49461;BME280;35355;49.198;-0.368;2023-04-10T07:22:23;100928.41;;;14.56;55.30
49461;BME280;35355;49.198;-0.368;2023-04-10T07:24:48;100910.81;;;14.57;55.32
49461;BME280;35355;49.198;-0.368;2023-04-10T07:27:14;100915.75;;;14.61;55.45
49461;BME280;35355;49.198;-0.368;2023-04-10T07:29:41;100911.94;;;14.62;55.30
49461;BME280;35355;49.198;-0.368;2023-04-10T07:32:06;100908.34;;;14.61;55.32
49461;BME280;35355;49.198;-0.368;2023-04-10T07:34:32;100915.75;;;14.61;55.26
49461;BME280;35355;49.198;-0.368;2023-04-10T07:36:57;100922.91;;;14.62;55.40
49461;BME280;35355;49.198;-0.368;2023-04-10T07:39:22;100919.88;;;14.63;55.40
49461;BME280;35355;49.198;-0.368;2023-04-10T07:41:48;100914.38;;;14.63;55.33
49461;BME280;35355;49.198;-0.368;2023-04-10T07:44:13;100910.81;;;14.63;55.36
49461;BME280;35355;49.198;-0.368;2023-04-10T07:46:39;100913.53;;;14.63;55.48
49461;BME280;35355;49.198;-0.368;2023-04-10T07:49:04;100912.72;;;14.62;55.51
49461;BME280;35355;49.198;-0.368;2023-04-10T07:51:30;100914.09;;;14.65;55.54
49461;BME280;35355;49.198;-0.368;2023-04-10T07:53:55;100910.78;;;14.68;55.61
49461;BME280;35355;49.198;-0.368;2023-04-10T07:56:21;100899.78;;;14.68;55.58
49461;BME280;35355;49.198;-0.368;2023-04-10T07:58:48;100903.63;;;14.72;55.68
49461;BME280;35355;49.198;-0.368;2023-04-10T08:01:13;100899.44;;;14.74;55.85
49461;BME280;35355;49.198;-0.368;2023-04-10T08:03:41;100903.56;;;14.77;55.90
49461;BME280;35355;49.198;-0.368;2023-04-10T08:06:10;100895.84;;;14.79;55.71
49461;BME280;35355;49.198;-0.368;2023-04-10T08:08:40;100901.59;;;14.83;55.90
49461;BME280;35355;49.198;-0.368;2023-04-10T08:11:20;100903.78;;;14.86;56.07
49461;BME280;35355;49.198;-0.368;2023-04-10T08:13:47;100895.75;;;14.89;56.07
49461;BME280;35355;49.198;-0.368;2023-04-10T08:16:13;100891.91;;;14.96;55.99
49461;BME280;35355;49.198;-0.368;2023-04-10T08:18:38;100898.13;;;15.01;56.15
49461;BME280;35355;49.198;-0.368;2023-04-10T08:21:04;100903.91;;;15.05;56.24
49461;BME280;35355;49.198;-0.368;2023-04-10T08:23:29;100896.72;;;15.09;56.37
49461;BME280;35355;49.198;-0.368;2023-04-10T08:25:55;100891.16;;;15.14;56.56
49461;BME280;35355;49.198;-0.368;2023-04-10T08:28:20;100898.53;;;15.19;56.57
49461;BME280;35355;49.198;-0.368;2023-04-10T08:30:45;100889.44;;;15.23;56.80
49461;BME280;35355;49.198;-0.368;2023-04-10T08:33:11;100892.94;;;15.29;56.96
49461;BME280;35355;49.198;-0.368;2023-04-10T08:35:36;100889.59;;;15.37;57.28
49461;BME280;35355;49.198;-0.368;2023-04-10T08:38:01;100879.94;;;15.40;57.02
49461;BME280;35355;49.198;-0.368;2023-04-10T08:40:27;100883.97;;;15.48;57.39
49461;BME280;35355;49.198;-0.368;2023-04-10T08:42:52;100890.25;;;15.53;57.48
49461;BME280;35355;49.198;-0.368;2023-04-10T08:45:17;100892.13;;;15.58;57.35
49461;BME280;35355;49.198;-0.368;2023-04-10T08:47:44;100884.69;;;15.58;57.68
49461;BME280;35355;49.198;-0.368;2023-04-10T08:50:12;100893.13;;;15.67;57.80
49461;BME280;35355;49.198;-0.368;2023-04-10T08:52:42;100891.94;;;15.73;57.74
49461;BME280;35355;49.198;-0.368;2023-04-10T08:55:10;100890.53;;;15.76;57.90
49461;BME280;35355;49.198;-0.368;2023-04-10T08:57:37;100901.53;;;15.81;58.04
49461;BME280;35355;49.198;-0.368;2023-04-10T09:00:03;100899.59;;;15.82;58.48
49461;BME280;35355;49.198;-0.368;2023-04-10T09:02:28;100904.56;;;15.79;59.07
49461;BME280;35355;49.198;-0.368;2023-04-10T09:04:54;100905.41;;;15.75;59.60
49461;BME280;35355;49.198;-0.368;2023-04-10T09:07:23;100896.63;;;15.73;59.91
49461;BME280;35355;49.198;-0.368;2023-04-10T09:09:48;100900.75;;;15.75;60.49
49461;BME280;35355;49.198;-0.368;2023-04-10T09:12:14;100894.41;;;15.75;60.83
49461;BME280;35355;49.198;-0.368;2023-04-10T09:14:40;100892.19;;;15.77;61.07
49461;BME280;35355;49.198;-0.368;2023-04-10T09:17:19;100890.53;;;15.76;61.11
49461;BME280;35355;49.198;-0.368;2023-04-10T09:19:51;100896.03;;;15.76;61.71
49461;BME280;35355;49.198;-0.368;2023-04-10T09:22:17;100902.34;;;15.76;62.14
49461;BME280;35355;49.198;-0.368;2023-04-10T09:24:45;100898.28;;;15.74;62.54
49461;BME280;35355;49.198;-0.368;2023-04-10T09:27:26;100896.69;;;15.68;61.77
49461;BME280;35355;49.198;-0.368;2023-04-10T09:29:52;100898.31;;;15.69;63.24
49461;BME280;35355;49.198;-0.368;2023-04-10T09:35:01;100891.75;;;15.65;63.83
49461;BME280;35355;49.198;-0.368;2023-04-10T09:37:32;100887.44;;;15.58;63.96
49461;BME280;35355;49.198;-0.368;2023-04-10T09:39:58;100892.13;;;15.58;64.64
49461;BME280;35355;49.198;-0.368;2023-04-10T09:42:34;100885.25;;;15.55;63.94
49461;BME280;35355;49.198;-0.368;2023-04-10T09:45:04;100877.53;;;15.57;64.91
49461;BME280;35355;49.198;-0.368;2023-04-10T09:47:30;100874.72;;;15.63;65.47
49461;BME280;35355;49.198;-0.368;2023-04-10T09:49:59;100879.66;;;15.66;65.20
49461;BME280;35355;49.198;-0.368;2023-04-10T09:54:52;100875.69;;;15.77;65.61
49461;BME280;35355;49.198;-0.368;2023-04-10T09:57:19;100867.38;;;15.82;65.58
49461;BME280;35355;49.198;-0.368;2023-04-10T09:59:50;100870.66;;;15.84;65.52
49461;BME280;35355;49.198;-0.368;2023-04-10T10:02:21;100868.94;;;15.88;65.33
49461;BME280;35355;49.198;-0.368;2023-04-10T10:04:48;100867.78;;;15.94;65.55
49461;BME280;35355;49.198;-0.368;2023-04-10T10:07:19;100861.75;;;15.92;65.28
49461;BME280;35355;49.198;-0.368;2023-04-10T10:09:46;100861.75;;;15.92;65.85
49461;BME280;35355;49.198;-0.368;2023-04-10T10:12:16;100869.94;;;15.98;65.67
49461;BME280;35355;49.198;-0.368;2023-04-10T10:15:08;100867.25;;;15.92;65.42
49461;BME280;35355;49.198;-0.368;2023-04-10T10:20:25;100878.38;;;15.82;66.47
49461;BME280;35355;49.198;-0.368;2023-04-10T10:22:51;100871.53;;;15.79;66.67
49461;BME280;35355;49.198;-0.368;2023-04-10T10:25:18;100864.66;;;15.77;66.81
49461;BME280;35355;49.198;-0.368;2023-04-10T10:27:48;100870.22;;;15.72;66.80
49461;BME280;35355;49.198;-0.368;2023-04-10T10:30:16;100857.84;;;15.69;67.06
49461;BME280;35355;49.198;-0.368;2023-04-10T10:32:44;100855.94;;;15.70;67.18
49461;BME280;35355;49.198;-0.368;2023-04-10T10:35:10;100862.81;;;15.72;67.54
49461;BME280;35355;49.198;-0.368;2023-04-10T10:37:36;100858.09;;;15.73;67.50
49461;BME280;35355;49.198;-0.368;2023-04-10T10:40:25;100854.84;;;15.71;66.41
49461;BME280;35355;49.198;-0.368;2023-04-10T10:48:27;100840.78;;;15.72;67.19
49461;BME280;35355;49.198;-0.368;2023-04-10T10:50:59;100843.84;;;15.71;66.98
49461;BME280;35355;49.198;-0.368;2023-04-10T10:53:43;100838.88;;;15.68;66.38
49461;BME280;35355;49.198;-0.368;2023-04-10T10:58:47;100843.84;;;15.71;67.21
49461;BME280;35355;49.198;-0.368;2023-04-10T11:01:14;100840.78;;;15.72;67.56
49461;BME280;35355;49.198;-0.368;2023-04-10T11:03:40;100834.69;;;15.75;67.62
49461;BME280;35355;49.198;-0.368;2023-04-10T11:06:17;100826.94;;;15.77;67.41
49461;BME280;35355;49.198;-0.368;2023-04-10T11:08:47;100823.38;;;15.77;67.25
49461;BME280;35355;49.198;-0.368;2023-04-10T11:11:17;100828.63;;;15.78;67.56
49461;BME280;35355;49.198;-0.368;2023-04-10T11:21:25;100813.25;;;15.96;67.67
49461;BME280;35355;49.198;-0.368;2023-04-10T11:31:37;100808.25;;;16.18;67.77
49461;BME280;35355;49.198;-0.368;2023-04-10T11:34:05;100811.31;;;16.16;67.68
49461;BME280;35355;49.198;-0.368;2023-04-10T11:36:31;100827.84;;;16.16;67.87
49461;BME280;35355;49.198;-0.368;2023-04-10T11:41:28;100808.72;;;16.06;68.00
49461;BME280;35355;49.198;-0.368;2023-04-10T11:43:55;100819.72;;;16.06;68.39
49461;BME280;35355;49.198;-0.368;2023-04-10T11:46:20;100812.88;;;16.03;68.88
49461;BME280;35355;49.198;-0.368;2023-04-10T11:48:46;100806.34;;;15.99;69.06
49461;BME280;35355;49.198;-0.368;2023-04-10T11:51:13;100812.19;;;15.92;69.49
49461;BME280;35355;49.198;-0.368;2023-04-10T11:53:39;100815.50;;;15.94;69.62
49461;BME280;35355;49.198;-0.368;2023-04-10T11:56:13;100808.84;;;15.95;69.61
49461;BME280;35355;49.198;-0.368;2023-04-10T11:58:38;100811.00;;;15.99;69.85
49461;BME280;35355;49.198;-0.368;2023-04-10T12:01:04;100807.09;;;16.05;69.86
49461;BME280;35355;49.198;-0.368;2023-04-10T12:03:37;100794.63;;;16.07;69.40
49461;BME280;35355;49.198;-0.368;2023-04-10T12:06:07;100794.34;;;16.09;69.66
49461;BME280;35355;49.198;-0.368;2023-04-10T12:08:38;100792.72;;;16.08;69.67
49461;BME280;35355;49.198;-0.368;2023-04-10T12:11:04;100785.34;;;16.03;70.23
49461;BME280;35355;49.198;-0.368;2023-04-10T12:13:30;100794.56;;;15.93;70.23
49461;BME280;35355;49.198;-0.368;2023-04-10T12:16:00;100794.41;;;15.85;70.09
49461;BME280;35355;49.198;-0.368;2023-04-10T12:18:27;100824.75;;;15.79;70.73
49461;BME280;35355;49.198;-0.368;2023-04-10T12:20:53;100843.84;;;15.71;70.72
49461;BME280;35355;49.198;-0.368;2023-04-10T12:23:25;100838.56;;;15.50;69.89
49461;BME280;35355;49.198;-0.368;2023-04-10T12:25:52;100856.44;;;15.23;69.57
49461;BME280;35355;49.198;-0.368;2023-04-10T12:28:21;100845.16;;;14.96;69.35
49461;BME280;35355;49.198;-0.368;2023-04-10T12:30:50;100836.25;;;14.74;69.72
49461;BME280;35355;49.198;-0.368;2023-04-10T12:33:23;100837.75;;;14.56;69.60
49461;BME280;35355;49.198;-0.368;2023-04-10T12:35:49;100846.34;;;14.45;70.10
49461;BME280;35355;49.198;-0.368;2023-04-10T12:38:16;100840.63;;;14.41;70.45
49461;BME280;35355;49.198;-0.368;2023-04-10T12:41:02;100838.97;;;14.40;70.17
49461;BME280;35355;49.198;-0.368;2023-04-10T12:43:35;100841.72;;;14.40;70.35
49461;BME280;35355;49.198;-0.368;2023-04-10T12:46:01;100845.03;;;14.37;70.12
49461;BME280;35355;49.198;-0.368;2023-04-10T12:48:27;100841.50;;;14.31;70.07
49461;BME280;35355;49.198;-0.368;2023-04-10T12:50:52;100841.78;;;14.30;70.21
49461;BME280;35355;49.198;-0.368;2023-04-10T12:53:18;100842.63;;;14.25;70.34
49461;BME280;35355;49.198;-0.368;2023-04-10T12:55:57;100836.34;;;14.19;69.76
49461;BME280;35355;49.198;-0.368;2023-04-10T12:58:23;100839.38;;;14.18;70.64
49461;BME280;35355;49.198;-0.368;2023-04-10T13:00:53;100853.91;;;14.18;70.72
49461;BME280;35355;49.198;-0.368;2023-04-10T13:03:19;100844.59;;;14.19;70.76
49461;BME280;35355;49.198;-0.368;2023-04-10T13:05:45;100846.75;;;14.23;70.87
49461;BME280;35355;49.198;-0.368;2023-04-10T13:08:11;100856.88;;;14.27;70.97
49461;BME280;35355;49.198;-0.368;2023-04-10T13:10:36;100858.25;;;14.30;71.10
49461;BME280;35355;49.198;-0.368;2023-04-10T13:13:03;100860.41;;;14.38;71.13
49461;BME280;35355;49.198;-0.368;2023-04-10T13:15:28;100865.28;;;14.46;71.09
49461;BME280;35355;49.198;-0.368;2023-04-10T13:17:54;100854.28;;;14.51;71.22
49461;BME280;35355;49.198;-0.368;2023-04-10T13:20:21;100855.31;;;14.55;71.30
49461;BME280;35355;49.198;-0.368;2023-04-10T13:22:46;100849.81;;;14.61;71.29
49461;BME280;35355;49.198;-0.368;2023-04-10T13:25:11;100849.25;;;14.64;71.34
49461;BME280;35355;49.198;-0.368;2023-04-10T13:27:37;100839.34;;;14.68;71.62
49461;BME280;35355;49.198;-0.368;2023-04-10T13:30:02;100844.50;;;14.74;71.42